sensor_id;sensor_type;location;lat;lon;timestamp;temperature;humidity
8715;DHT22;4394;51.208;8.904;2023-03-14T00:01:59;11.10;99.90
8715;DHT22;4394;51.208;8.904;2023-03-14T00:04:46;11.10;99.90
8715;DHT22;4394;51.208;8.904;2023-03-14T00:07:37;11.10;99.90
8715;DHT22;4394;51.208;8.904;2023-03-14T00:10:25;11.00;99.90
8715;DHT22;4394;51.208;8.904;2023-03-14T00:13:13;11.00;99.90
8715;DHT22;4394;51.208;8.904;2023-03-14T00:16:05;11.00;99.90
8715;DHT22;4394;51.208;8.904;2023-03-14T00:18:53;11.00;99.90
8715;DHT22;4394;51.208;8.904;2023-03-14T00:21:41;11.00;99.90
8715;DHT22;4394;51.208;8.904;2023-03-14T00:24:30;11.00;99.90
8715;DHT22;4394;51.208;8.904;2023-03-14T00:27:18;11.00;99.90
8715;DHT22;4394;51.208;8.904;2023-03-14T00:30:07;11.00;99.90
8715;DHT22;4394;51.208;8.904;2023-03-14T00:32:55;11.00;99.90
8715;DHT22;4394;51.208;8.904;2023-03-14T00:35:43;11.00;99.90
8715;DHT22;4394;51.208;8.904;2023-03-14T00:38:32;11.00;99.90
8715;DHT22;4394;51.208;8.904;2023-03-14T00:41:22;11.00;99.90
8715;DHT22;4394;51.208;8.904;2023-03-14T00:44:10;11.00;99.90
8715;DHT22;4394;51.208;8.904;2023-03-14T00:46:58;11.00;99.90
8715;DHT22;4394;51.208;8.904;2023-03-14T00:49:46;10.90;99.90
8715;DHT22;4394;51.208;8.904;2023-03-14T00:52:34;11.00;99.90
8715;DHT22;4394;51.208;8.904;2023-03-14T00:55:22;10.90;99.90
8715;DHT22;4394;51.208;8.904;2023-03-14T00:58:12;11.00;99.90
8715;DHT22;4394;51.208;8.904;2023-03-14T01:01:05;10.90;99.90
8715;DHT22;4394;51.208;8.904;2023-03-14T01:03:54;11.00;99.90
8715;DHT22;4394;51.208;8.904;2023-03-14T01:06:42;11.00;99.90
8715;DHT22;4394;51.208;8.904;2023-03-14T01:09:30;11.00;99.90
8715;DHT22;4394;51.208;8.904;2023-03-14T01:12:18;11.00;99.90
8715;DHT22;4394;51.208;8.904;2023-03-14T01:15:08;10.90;99.90
8715;DHT22;4394;51.208;8.904;2023-03-14T01:17:56;10.90;99.90
8715;DHT22;4394;51.208;8.904;2023-03-14T01:20:44;10.90;99.90
8715;DHT22;4394;51.208;8.904;2023-03-14T01:23:31;10.90;99.90
8715;DHT22;4394;51.208;8.904;2023-03-14T01:26:21;10.90;99.90
8715;DHT22;4394;51.208;8.904;2023-03-14T01:29:09;11.00;99.90
8715;DHT22;4394;51.208;8.904;2023-03-14T01:31:59;10.90;99.90
8715;DHT22;4394;51.208;8.904;2023-03-14T01:34:46;10.90;99.90
8715;DHT22;4394;51.208;8.904;2023-03-14T01:37:34;10.90;99.90
8715;DHT22;4394;51.208;8.904;2023-03-14T01:40:22;10.90;99.90
8715;DHT22;4394;51.208;8.904;2023-03-14T01:43:15;10.90;99.90
8715;DHT22;4394;51.208;8.904;2023-03-14T01:46:20;10.90;99.90
8715;DHT22;4394;51.208;8.904;2023-03-14T01:49:19;10.90;99.90
8715;DHT22;4394;51.208;8.904;2023-03-14T01:52:12;10.90;99.90
8715;DHT22;4394;51.208;8.904;2023-03-14T01:55:04;10.80;99.90
8715;DHT22;4394;51.208;8.904;2023-03-14T01:57:55;10.80;99.90
8715;DHT22;4394;51.208;8.904;2023-03-14T02:00:44;10.80;99.90
8715;DHT22;4394;51.208;8.904;2023-03-14T02:03:36;10.80;99.90
8715;DHT22;4394;51.208;8.904;2023-03-14T02:06:31;10.70;99.90
8715;DHT22;4394;51.208;8.904;2023-03-14T02:09:21;10.80;99.90
8715;DHT22;4394;51.208;8.904;2023-03-14T02:12:09;10.70;99.90
8715;DHT22;4394;51.208;8.904;2023-03-14T02:14:58;10.70;99.90
8715;DHT22;4394;51.208;8.904;2023-03-14T02:17:47;10.70;99.90
8715;DHT22;4394;51.208;8.904;2023-03-14T02:20:40;10.70;99.90
8715;DHT22;4394;51.208;8.904;2023-03-14T02:23:38;10.70;99.90
8715;DHT22;4394;51.208;8.904;2023-03-14T02:26:33;10.70;99.90
8715;DHT22;4394;51.208;8.904;2023-03-14T02:29:23;10.60;99.90
8715;DHT22;4394;51.208;8.904;2023-03-14T02:32:13;10.60;99.90
8715;DHT22;4394;51.208;8.904;2023-03-14T02:35:05;10.60;99.90
8715;DHT22;4394;51.208;8.904;2023-03-14T02:37:57;10.60;99.90
8715;DHT22;4394;51.208;8.904;2023-03-14T02:40:48;10.50;99.90
8715;DHT22;4394;51.208;8.904;2023-03-14T02:43:36;10.50;99.90
8715;DHT22;4394;51.208;8.904;2023-03-14T02:46:25;10.50;99.90
8715;DHT22;4394;51.208;8.904;2023-03-14T02:49:14;10.40;99.90
8715;DHT22;4394;51.208;8.904;2023-03-14T02:52:02;10.40;99.90
8715;DHT22;4394;51.208;8.904;2023-03-14T02:54:50;10.40;99.90
8715;DHT22;4394;51.208;8.904;2023-03-14T02:57:38;10.40;99.90
8715;DHT22;4394;51.208;8.904;2023-03-14T03:00:26;10.40;99.90
8715;DHT22;4394;51.208;8.904;2023-03-14T03:03:16;10.40;99.90
8715;DHT22;4394;51.208;8.904;2023-03-14T03:06:04;10.40;99.90
8715;DHT22;4394;51.208;8.904;2023-03-14T03:08:52;10.40;99.90
8715;DHT22;4394;51.208;8.904;2023-03-14T03:11:40;10.30;99.90
8715;DHT22;4394;51.208;8.904;2023-03-14T03:14:28;10.40;99.90
8715;DHT22;4394;51.208;8.904;2023-03-14T03:17:16;10.40;99.90
8715;DHT22;4394;51.208;8.904;2023-03-14T03:20:06;10.40;99.90
8715;DHT22;4394;51.208;8.904;2023-03-14T03:22:55;10.40;99.90
8715;DHT22;4394;51.208;8.904;2023-03-14T03:25:48;10.40;99.90
8715;DHT22;4394;51.208;8.904;2023-03-14T03:28:36;10.30;99.90
8715;DHT22;4394;51.208;8.904;2023-03-14T03:31:24;10.30;99.90
8715;DHT22;4394;51.208;8.904;2023-03-14T03:34:13;10.30;99.90
8715;DHT22;4394;51.208;8.904;2023-03-14T03:37:05;10.30;99.90
8715;DHT22;4394;51.208;8.904;2023-03-14T03:39:54;10.20;99.90
8715;DHT22;4394;51.208;8.904;2023-03-14T03:42:41;10.30;99.90
8715;DHT22;4394;51.208;8.904;2023-03-14T03:45:29;10.30;99.90
8715;DHT22;4394;51.208;8.904;2023-03-14T03:48:17;10.20;99.90
8715;DHT22;4394;51.208;8.904;2023-03-14T03:51:06;10.20;99.90
8715;DHT22;4394;51.208;8.904;2023-03-14T03:53:56;10.20;99.90
8715;DHT22;4394;51.208;8.904;2023-03-14T03:56:44;10.10;99.90
8715;DHT22;4394;51.208;8.904;2023-03-14T03:59:31;10.10;99.90
8715;DHT22;4394;51.208;8.904;2023-03-14T04:02:19;10.10;99.90
8715;DHT22;4394;51.208;8.904;2023-03-14T04:05:08;10.10;99.90
8715;DHT22;4394;51.208;8.904;2023-03-14T04:07:56;10.10;99.90
8715;DHT22;4394;51.208;8.904;2023-03-14T04:10:45;10.10;99.90
8715;DHT22;4394;51.208;8.904;2023-03-14T04:13:33;10.00;99.90
8715;DHT22;4394;51.208;8.904;2023-03-14T04:16:23;10.00;99.90
8715;DHT22;4394;51.208;8.904;2023-03-14T04:19:11;10.00;99.90
8715;DHT22;4394;51.208;8.904;2023-03-14T04:21:59;10.00;99.90
8715;DHT22;4394;51.208;8.904;2023-03-14T04:24:47;10.00;99.90
8715;DHT22;4394;51.208;8.904;2023-03-14T04:27:36;10.00;99.90
8715;DHT22;4394;51.208;8.904;2023-03-14T04:30:24;10.00;99.90
8715;DHT22;4394;51.208;8.904;2023-03-14T04:33:11;10.00;99.90
8715;DHT22;4394;51.208;8.904;2023-03-14T04:36:04;10.00;99.90
8715;DHT22;4394;51.208;8.904;2023-03-14T04:38:52;10.00;99.90
8715;DHT22;4394;51.208;8.904;2023-03-14T04:41:40;9.90;99.90
8715;DHT22;4394;51.208;8.904;2023-03-14T04:44:30;9.90;99.90
8715;DHT22;4394;51.208;8.904;2023-03-14T04:47:17;9.80;99.90
8715;DHT22;4394;51.208;8.904;2023-03-14T04:50:06;9.80;99.90
8715;DHT22;4394;51.208;8.904;2023-03-14T04:52:54;9.70;99.90
8715;DHT22;4394;51.208;8.904;2023-03-14T04:55:41;9.70;99.90
8715;DHT22;4394;51.208;8.904;2023-03-14T04:58:30;9.70;99.90
8715;DHT22;4394;51.208;8.904;2023-03-14T05:01:19;9.80;99.90
8715;DHT22;4394;51.208;8.904;2023-03-14T05:04:07;9.80;99.90
8715;DHT22;4394;51.208;8.904;2023-03-14T05:06:54;9.80;99.90
8715;DHT22;4394;51.208;8.904;2023-03-14T05:09:42;9.80;99.90
8715;DHT22;4394;51.208;8.904;2023-03-14T05:12:30;9.80;99.90
8715;DHT22;4394;51.208;8.904;2023-03-14T05:15:18;9.80;99.90
8715;DHT22;4394;51.208;8.904;2023-03-14T05:18:08;9.80;99.90
8715;DHT22;4394;51.208;8.904;2023-03-14T05:20:55;9.80;99.90
8715;DHT22;4394;51.208;8.904;2023-03-14T05:23:43;9.80;99.90
8715;DHT22;4394;51.208;8.904;2023-03-14T05:26:31;9.80;99.90
8715;DHT22;4394;51.208;8.904;2023-03-14T05:29:19;9.90;99.90
8715;DHT22;4394;51.208;8.904;2023-03-14T05:32:07;9.90;99.90
8715;DHT22;4394;51.208;8.904;2023-03-14T05:34:56;9.90;99.90
8715;DHT22;4394;51.208;8.904;2023-03-14T05:37:46;9.90;99.90
8715;DHT22;4394;51.208;8.904;2023-03-14T05:40:34;10.00;99.90
8715;DHT22;4394;51.208;8.904;2023-03-14T05:43:21;10.00;99.90
8715;DHT22;4394;51.208;8.904;2023-03-14T05:46:09;9.90;99.90
8715;DHT22;4394;51.208;8.904;2023-03-14T05:48:57;10.00;99.90
8715;DHT22;4394;51.208;8.904;2023-03-14T05:51:47;10.00;99.90
8715;DHT22;4394;51.208;8.904;2023-03-14T05:54:35;10.00;99.90
8715;DHT22;4394;51.208;8.904;2023-03-14T05:57:23;10.00;99.90
8715;DHT22;4394;51.208;8.904;2023-03-14T06:00:11;9.90;99.90
8715;DHT22;4394;51.208;8.904;2023-03-14T06:02:59;9.90;99.90
8715;DHT22;4394;51.208;8.904;2023-03-14T06:05:49;9.90;99.90
8715;DHT22;4394;51.208;8.904;2023-03-14T06:08:39;9.90;99.90
8715;DHT22;4394;51.208;8.904;2023-03-14T06:11:27;10.00;99.90
8715;DHT22;4394;51.208;8.904;2023-03-14T06:14:15;9.90;99.90
8715;DHT22;4394;51.208;8.904;2023-03-14T06:17:02;9.90;99.90
8715;DHT22;4394;51.208;8.904;2023-03-14T06:19:50;9.90;99.90
8715;DHT22;4394;51.208;8.904;2023-03-14T06:22:38;9.90;99.90
8715;DHT22;4394;51.208;8.904;2023-03-14T06:25:28;9.90;99.90
8715;DHT22;4394;51.208;8.904;2023-03-14T06:28:16;9.90;99.90
8715;DHT22;4394;51.208;8.904;2023-03-14T06:31:04;10.00;99.90
8715;DHT22;4394;51.208;8.904;2023-03-14T06:33:52;10.00;99.90
8715;DHT22;4394;51.208;8.904;2023-03-14T06:36:42;10.00;99.90
8715;DHT22;4394;51.208;8.904;2023-03-14T06:39:30;10.00;99.90
8715;DHT22;4394;51.208;8.904;2023-03-14T06:42:19;10.00;99.90
8715;DHT22;4394;51.208;8.904;2023-03-14T06:45:08;10.00;99.90
8715;DHT22;4394;51.208;8.904;2023-03-14T06:47:56;10.00;99.90
8715;DHT22;4394;51.208;8.904;2023-03-14T06:50:44;10.00;99.90
8715;DHT22;4394;51.208;8.904;2023-03-14T06:53:32;10.00;99.90
8715;DHT22;4394;51.208;8.904;2023-03-14T06:56:20;9.90;99.90
8715;DHT22;4394;51.208;8.904;2023-03-14T06:59:09;9.90;99.90
8715;DHT22;4394;51.208;8.904;2023-03-14T07:01:57;9.90;99.90
8715;DHT22;4394;51.208;8.904;2023-03-14T07:04:45;10.00;99.90
8715;DHT22;4394;51.208;8.904;2023-03-14T07:07:33;10.00;99.90
8715;DHT22;4394;51.208;8.904;2023-03-14T07:10:20;10.00;99.90
8715;DHT22;4394;51.208;8.904;2023-03-14T07:13:08;10.00;99.90
8715;DHT22;4394;51.208;8.904;2023-03-14T07:15:57;9.90;99.90
8715;DHT22;4394;51.208;8.904;2023-03-14T07:18:45;9.90;99.90
8715;DHT22;4394;51.208;8.904;2023-03-14T07:21:33;9.90;99.90
8715;DHT22;4394;51.208;8.904;2023-03-14T07:24:22;10.00;99.90
8715;DHT22;4394;51.208;8.904;2023-03-14T07:27:10;9.90;99.90
8715;DHT22;4394;51.208;8.904;2023-03-14T07:29:58;9.90;99.90
8715;DHT22;4394;51.208;8.904;2023-03-14T07:32:47;9.90;99.90
8715;DHT22;4394;51.208;8.904;2023-03-14T07:35:35;9.80;99.90
8715;DHT22;4394;51.208;8.904;2023-03-14T07:38:22;9.70;99.90
8715;DHT22;4394;51.208;8.904;2023-03-14T07:41:10;9.80;99.90
8715;DHT22;4394;51.208;8.904;2023-03-14T07:43:58;9.80;99.90
8715;DHT22;4394;51.208;8.904;2023-03-14T07:46:46;9.80;99.90
8715;DHT22;4394;51.208;8.904;2023-03-14T07:49:35;9.80;99.90
8715;DHT22;4394;51.208;8.904;2023-03-14T07:52:23;9.80;99.90
8715;DHT22;4394;51.208;8.904;2023-03-14T07:55:11;9.90;99.90
8715;DHT22;4394;51.208;8.904;2023-03-14T07:58:00;9.90;99.90
8715;DHT22;4394;51.208;8.904;2023-03-14T08:00:48;9.90;99.90
8715;DHT22;4394;51.208;8.904;2023-03-14T08:03:36;9.90;99.90
8715;DHT22;4394;51.208;8.904;2023-03-14T08:06:25;10.00;99.90
8715;DHT22;4394;51.208;8.904;2023-03-14T08:09:13;10.10;99.90
8715;DHT22;4394;51.208;8.904;2023-03-14T08:12:02;10.10;99.90
8715;DHT22;4394;51.208;8.904;2023-03-14T08:14:49;10.10;99.90
8715;DHT22;4394;51.208;8.904;2023-03-14T08:17:37;10.10;99.90
8715;DHT22;4394;51.208;8.904;2023-03-14T08:20:27;10.20;99.90
8715;DHT22;4394;51.208;8.904;2023-03-14T08:23:16;10.20;99.90
8715;DHT22;4394;51.208;8.904;2023-03-14T08:26:04;10.30;99.90
8715;DHT22;4394;51.208;8.904;2023-03-14T08:28:52;10.40;99.90
8715;DHT22;4394;51.208;8.904;2023-03-14T08:31:40;10.40;99.90
8715;DHT22;4394;51.208;8.904;2023-03-14T08:34:28;10.30;99.90
8715;DHT22;4394;51.208;8.904;2023-03-14T08:37:16;10.20;99.90
8715;DHT22;4394;51.208;8.904;2023-03-14T08:40:14;10.40;99.90
8715;DHT22;4394;51.208;8.904;2023-03-14T08:43:03;10.30;99.90
8715;DHT22;4394;51.208;8.904;2023-03-14T08:45:51;10.30;99.90
8715;DHT22;4394;51.208;8.904;2023-03-14T08:48:39;10.40;99.90
8715;DHT22;4394;51.208;8.904;2023-03-14T08:51:27;10.40;99.90
8715;DHT22;4394;51.208;8.904;2023-03-14T08:54:15;10.40;99.90
8715;DHT22;4394;51.208;8.904;2023-03-14T08:57:04;10.50;99.90
8715;DHT22;4394;51.208;8.904;2023-03-14T08:59:52;10.50;99.90
8715;DHT22;4394;51.208;8.904;2023-03-14T09:02:40;10.50;99.90
8715;DHT22;4394;51.208;8.904;2023-03-14T09:05:28;10.60;99.90
8715;DHT22;4394;51.208;8.904;2023-03-14T09:08:16;10.60;99.90
8715;DHT22;4394;51.208;8.904;2023-03-14T09:11:06;10.60;99.90
8715;DHT22;4394;51.208;8.904;2023-03-14T09:13:56;10.70;99.90
8715;DHT22;4394;51.208;8.904;2023-03-14T09:16:44;10.70;99.90
8715;DHT22;4394;51.208;8.904;2023-03-14T09:19:31;10.70;99.90
8715;DHT22;4394;51.208;8.904;2023-03-14T09:22:19;10.70;99.90
8715;DHT22;4394;51.208;8.904;2023-03-14T09:25:08;10.70;99.90
8715;DHT22;4394;51.208;8.904;2023-03-14T09:27:57;10.70;99.90
8715;DHT22;4394;51.208;8.904;2023-03-14T09:30:46;10.80;99.90
8715;DHT22;4394;51.208;8.904;2023-03-14T09:33:34;10.70;99.90
8715;DHT22;4394;51.208;8.904;2023-03-14T09:36:22;10.80;99.90
8715;DHT22;4394;51.208;8.904;2023-03-14T09:39:09;10.70;99.90
8715;DHT22;4394;51.208;8.904;2023-03-14T09:41:58;10.70;99.90
8715;DHT22;4394;51.208;8.904;2023-03-14T09:44:54;10.70;99.90
8715;DHT22;4394;51.208;8.904;2023-03-14T09:47:45;10.70;99.90
8715;DHT22;4394;51.208;8.904;2023-03-14T09:50:48;10.80;99.90
8715;DHT22;4394;51.208;8.904;2023-03-14T09:53:39;10.80;99.90
8715;DHT22;4394;51.208;8.904;2023-03-14T09:56:31;10.90;99.90
8715;DHT22;4394;51.208;8.904;2023-03-14T09:59:19;10.90;99.90
8715;DHT22;4394;51.208;8.904;2023-03-14T10:02:17;10.90;99.90
8715;DHT22;4394;51.208;8.904;2023-03-14T10:05:13;10.90;99.90
8715;DHT22;4394;51.208;8.904;2023-03-14T10:08:01;11.00;99.90
8715;DHT22;4394;51.208;8.904;2023-03-14T10:10:49;11.10;99.90
8715;DHT22;4394;51.208;8.904;2023-03-14T10:13:48;11.20;99.90
8715;DHT22;4394;51.208;8.904;2023-03-14T10:16:40;11.20;99.90
8715;DHT22;4394;51.208;8.904;2023-03-14T10:19:29;11.20;99.90
8715;DHT22;4394;51.208;8.904;2023-03-14T10:22:19;11.30;99.90
8715;DHT22;4394;51.208;8.904;2023-03-14T10:25:25;11.30;99.90
8715;DHT22;4394;51.208;8.904;2023-03-14T10:28:24;11.30;99.90
8715;DHT22;4394;51.208;8.904;2023-03-14T10:31:12;11.30;99.90
8715;DHT22;4394;51.208;8.904;2023-03-14T10:34:02;11.30;99.90
8715;DHT22;4394;51.208;8.904;2023-03-14T10:36:55;11.30;99.90
8715;DHT22;4394;51.208;8.904;2023-03-14T10:39:47;11.40;99.90
8715;DHT22;4394;51.208;8.904;2023-03-14T10:42:39;11.40;99.90
8715;DHT22;4394;51.208;8.904;2023-03-14T10:45:35;11.70;99.90
8715;DHT22;4394;51.208;8.904;2023-03-14T10:48:25;11.60;99.90
8715;DHT22;4394;51.208;8.904;2023-03-14T10:51:20;11.70;99.90
8715;DHT22;4394;51.208;8.904;2023-03-14T10:54:14;11.70;99.90
8715;DHT22;4394;51.208;8.904;2023-03-14T10:57:07;11.70;99.90
8715;DHT22;4394;51.208;8.904;2023-03-14T10:59:56;11.70;99.90
8715;DHT22;4394;51.208;8.904;2023-03-14T11:02:53;11.70;99.90
8715;DHT22;4394;51.208;8.904;2023-03-14T11:05:49;11.70;99.90
8715;DHT22;4394;51.208;8.904;2023-03-14T11:08:45;11.70;99.90
8715;DHT22;4394;51.208;8.904;2023-03-14T11:11:35;11.70;99.90
8715;DHT22;4394;51.208;8.904;2023-03-14T11:14:29;11.60;99.90
8715;DHT22;4394;51.208;8.904;2023-03-14T11:17:25;11.70;99.90
8715;DHT22;4394;51.208;8.904;2023-03-14T11:20:26;11.70;99.90
8715;DHT22;4394;51.208;8.904;2023-03-14T11:23:20;11.70;99.90
8715;DHT22;4394;51.208;8.904;2023-03-14T11:26:18;11.60;99.90
8715;DHT22;4394;51.208;8.904;2023-03-14T11:29:20;11.60;99.90
8715;DHT22;4394;51.208;8.904;2023-03-14T11:32:17;11.50;99.90
8715;DHT22;4394;51.208;8.904;2023-03-14T11:35:16;11.40;99.90
8715;DHT22;4394;51.208;8.904;2023-03-14T11:38:12;11.30;99.90
8715;DHT22;4394;51.208;8.904;2023-03-14T11:41:00;11.10;99.90
8715;DHT22;4394;51.208;8.904;2023-03-14T11:43:51;10.90;99.90
8715;DHT22;4394;51.208;8.904;2023-03-14T11:46:43;10.80;99.90
8715;DHT22;4394;51.208;8.904;2023-03-14T11:49:36;10.60;99.90
8715;DHT22;4394;51.208;8.904;2023-03-14T11:52:30;10.50;99.90
8715;DHT22;4394;51.208;8.904;2023-03-14T11:55:20;10.40;99.90
8715;DHT22;4394;51.208;8.904;2023-03-14T11:58:16;10.00;99.90
8715;DHT22;4394;51.208;8.904;2023-03-14T12:01:09;9.90;99.90
8715;DHT22;4394;51.208;8.904;2023-03-14T12:04:06;9.70;99.90
8715;DHT22;4394;51.208;8.904;2023-03-14T12:07:02;9.40;99.90
8715;DHT22;4394;51.208;8.904;2023-03-14T12:09:51;9.30;99.90
8715;DHT22;4394;51.208;8.904;2023-03-14T12:12:40;9.30;99.90
8715;DHT22;4394;51.208;8.904;2023-03-14T12:15:28;9.30;99.90
8715;DHT22;4394;51.208;8.904;2023-03-14T12:18:20;9.20;99.90
8715;DHT22;4394;51.208;8.904;2023-03-14T12:21:11;9.00;99.90
8715;DHT22;4394;51.208;8.904;2023-03-14T12:24:00;8.80;99.90
8715;DHT22;4394;51.208;8.904;2023-03-14T12:26:53;8.80;99.90
8715;DHT22;4394;51.208;8.904;2023-03-14T12:29:57;8.80;99.90
8715;DHT22;4394;51.208;8.904;2023-03-14T12:39:44;8.50;99.90
8715;DHT22;4394;51.208;8.904;2023-03-14T12:42:40;8.40;99.90
8715;DHT22;4394;51.208;8.904;2023-03-14T12:45:32;8.30;99.90
8715;DHT22;4394;51.208;8.904;2023-03-14T12:48:22;8.20;99.90
8715;DHT22;4394;51.208;8.904;2023-03-14T12:51:14;8.10;99.90
8715;DHT22;4394;51.208;8.904;2023-03-14T12:54:21;8.00;99.90
8715;DHT22;4394;51.208;8.904;2023-03-14T12:57:22;7.80;99.90
8715;DHT22;4394;51.208;8.904;2023-03-14T13:00:18;7.70;99.90
8715;DHT22;4394;51.208;8.904;2023-03-14T13:03:18;7.60;99.90
8715;DHT22;4394;51.208;8.904;2023-03-14T13:06:11;7.30;99.90
8715;DHT22;4394;51.208;8.904;2023-03-14T13:09:35;7.10;99.90
8715;DHT22;4394;51.208;8.904;2023-03-14T13:12:27;6.90;99.90
8715;DHT22;4394;51.208;8.904;2023-03-14T13:15:26;6.70;99.90
8715;DHT22;4394;51.208;8.904;2023-03-14T13:18:16;6.50;99.90
8715;DHT22;4394;51.208;8.904;2023-03-14T13:21:07;6.50;99.90
8715;DHT22;4394;51.208;8.904;2023-03-14T13:24:00;6.50;99.90
8715;DHT22;4394;51.208;8.904;2023-03-14T13:26:48;6.50;99.90
8715;DHT22;4394;51.208;8.904;2023-03-14T13:29:37;6.40;99.90
8715;DHT22;4394;51.208;8.904;2023-03-14T13:32:28;6.40;99.90
8715;DHT22;4394;51.208;8.904;2023-03-14T13:35:18;6.30;99.90
8715;DHT22;4394;51.208;8.904;2023-03-14T13:38:17;6.00;99.90
8715;DHT22;4394;51.208;8.904;2023-03-14T13:41:07;5.90;99.90
8715;DHT22;4394;51.208;8.904;2023-03-14T13:44:02;5.90;99.90
8715;DHT22;4394;51.208;8.904;2023-03-14T13:46:57;5.70;99.90
8715;DHT22;4394;51.208;8.904;2023-03-14T13:49:46;5.70;99.90
8715;DHT22;4394;51.208;8.904;2023-03-14T13:52:36;5.70;99.90
8715;DHT22;4394;51.208;8.904;2023-03-14T13:55:24;5.80;99.90
8715;DHT22;4394;51.208;8.904;2023-03-14T13:58:27;5.70;99.90
8715;DHT22;4394;51.208;8.904;2023-03-14T14:01:16;5.60;99.90
8715;DHT22;4394;51.208;8.904;2023-03-14T14:04:13;5.50;99.90
8715;DHT22;4394;51.208;8.904;2023-03-14T14:07:07;5.50;99.90
8715;DHT22;4394;51.208;8.904;2023-03-14T14:09:59;5.50;99.90
8715;DHT22;4394;51.208;8.904;2023-03-14T14:12:52;5.60;99.90
8715;DHT22;4394;51.208;8.904;2023-03-14T14:15:43;5.70;99.90
8715;DHT22;4394;51.208;8.904;2023-03-14T14:18:32;5.70;99.90
8715;DHT22;4394;51.208;8.904;2023-03-14T14:21:22;5.70;99.90
8715;DHT22;4394;51.208;8.904;2023-03-14T14:24:12;5.60;99.90
8715;DHT22;4394;51.208;8.904;2023-03-14T14:27:13;5.60;99.90
8715;DHT22;4394;51.208;8.904;2023-03-14T14:30:05;5.70;99.90
8715;DHT22;4394;51.208;8.904;2023-03-14T14:32:55;5.60;99.90
8715;DHT22;4394;51.208;8.904;2023-03-14T14:35:58;5.50;99.90
8715;DHT22;4394;51.208;8.904;2023-03-14T14:38:58;5.60;99.90
8715;DHT22;4394;51.208;8.904;2023-03-14T14:41:48;5.70;99.90
8715;DHT22;4394;51.208;8.904;2023-03-14T14:44:37;5.80;99.90
8715;DHT22;4394;51.208;8.904;2023-03-14T14:47:27;6.00;99.90
8715;DHT22;4394;51.208;8.904;2023-03-14T14:50:28;6.00;99.90
8715;DHT22;4394;51.208;8.904;2023-03-14T14:53:22;6.10;99.90
8715;DHT22;4394;51.208;8.904;2023-03-14T14:56:18;6.10;99.90
8715;DHT22;4394;51.208;8.904;2023-03-14T14:59:21;6.20;99.90
8715;DHT22;4394;51.208;8.904;2023-03-14T15:02:24;6.10;99.90
8715;DHT22;4394;51.208;8.904;2023-03-14T15:05:15;6.10;99.90
8715;DHT22;4394;51.208;8.904;2023-03-14T15:08:08;6.00;99.90
8715;DHT22;4394;51.208;8.904;2023-03-14T15:10:57;5.90;99.90
8715;DHT22;4394;51.208;8.904;2023-03-14T15:13:47;5.60;99.90
8715;DHT22;4394;51.208;8.904;2023-03-14T15:16:34;5.50;99.90
8715;DHT22;4394;51.208;8.904;2023-03-14T15:19:25;5.50;99.90
8715;DHT22;4394;51.208;8.904;2023-03-14T15:22:13;5.30;99.90
8715;DHT22;4394;51.208;8.904;2023-03-14T15:25:01;5.10;99.90
8715;DHT22;4394;51.208;8.904;2023-03-14T15:27:49;4.90;99.90
8715;DHT22;4394;51.208;8.904;2023-03-14T15:30:39;4.70;99.90
8715;DHT22;4394;51.208;8.904;2023-03-14T15:33:27;4.60;99.90
8715;DHT22;4394;51.208;8.904;2023-03-14T15:36:21;4.60;99.90
8715;DHT22;4394;51.208;8.904;2023-03-14T15:39:10;4.70;99.90
8715;DHT22;4394;51.208;8.904;2023-03-14T15:41:58;4.80;99.90
8715;DHT22;4394;51.208;8.904;2023-03-14T15:44:46;4.90;99.90
8715;DHT22;4394;51.208;8.904;2023-03-14T15:47:35;5.00;99.90
8715;DHT22;4394;51.208;8.904;2023-03-14T15:50:23;5.00;99.90
8715;DHT22;4394;51.208;8.904;2023-03-14T15:53:12;5.10;99.90
8715;DHT22;4394;51.208;8.904;2023-03-14T15:56:00;5.20;99.90
8715;DHT22;4394;51.208;8.904;2023-03-14T15:58:48;5.40;99.90
8715;DHT22;4394;51.208;8.904;2023-03-14T16:01:37;5.50;99.90
8715;DHT22;4394;51.208;8.904;2023-03-14T16:04:26;5.60;99.90
8715;DHT22;4394;51.208;8.904;2023-03-14T16:07:16;5.70;99.90
8715;DHT22;4394;51.208;8.904;2023-03-14T16:10:05;5.70;99.90
8715;DHT22;4394;51.208;8.904;2023-03-14T16:12:53;5.70;99.90
8715;DHT22;4394;51.208;8.904;2023-03-14T16:15:41;5.50;99.90
8715;DHT22;4394;51.208;8.904;2023-03-14T16:18:30;5.30;99.90
8715;DHT22;4394;51.208;8.904;2023-03-14T16:21:20;5.30;99.90
8715;DHT22;4394;51.208;8.904;2023-03-14T16:24:08;5.20;99.90
8715;DHT22;4394;51.208;8.904;2023-03-14T16:26:59;5.10;99.90
8715;DHT22;4394;51.208;8.904;2023-03-14T16:29:47;5.00;99.90
8715;DHT22;4394;51.208;8.904;2023-03-14T16:32:38;4.90;99.90
8715;DHT22;4394;51.208;8.904;2023-03-14T16:35:26;4.80;99.90
8715;DHT22;4394;51.208;8.904;2023-03-14T16:38:15;4.80;99.90
8715;DHT22;4394;51.208;8.904;2023-03-14T16:41:06;4.70;99.90
8715;DHT22;4394;51.208;8.904;2023-03-14T16:43:54;4.70;99.90
8715;DHT22;4394;51.208;8.904;2023-03-14T16:46:42;4.60;99.90
8715;DHT22;4394;51.208;8.904;2023-03-14T16:49:30;4.60;99.90
8715;DHT22;4394;51.208;8.904;2023-03-14T16:52:18;4.60;99.90
8715;DHT22;4394;51.208;8.904;2023-03-14T16:55:08;4.60;99.90
8715;DHT22;4394;51.208;8.904;2023-03-14T16:57:56;4.60;99.90
8715;DHT22;4394;51.208;8.904;2023-03-14T17:00:44;4.70;99.90
8715;DHT22;4394;51.208;8.904;2023-03-14T17:03:32;4.60;99.90
8715;DHT22;4394;51.208;8.904;2023-03-14T17:06:22;4.60;99.90
8715;DHT22;4394;51.208;8.904;2023-03-14T17:09:10;4.60;99.90
8715;DHT22;4394;51.208;8.904;2023-03-14T17:11:59;4.60;99.90
8715;DHT22;4394;51.208;8.904;2023-03-14T17:14:47;4.70;99.90
8715;DHT22;4394;51.208;8.904;2023-03-14T17:17:35;4.70;99.90
8715;DHT22;4394;51.208;8.904;2023-03-14T17:20:23;4.70;99.90
8715;DHT22;4394;51.208;8.904;2023-03-14T17:23:11;4.60;99.90
8715;DHT22;4394;51.208;8.904;2023-03-14T17:25:59;4.60;99.90
8715;DHT22;4394;51.208;8.904;2023-03-14T17:28:48;4.60;99.90
8715;DHT22;4394;51.208;8.904;2023-03-14T17:31:36;4.60;99.90
8715;DHT22;4394;51.208;8.904;2023-03-14T17:34:24;4.50;99.90
8715;DHT22;4394;51.208;8.904;2023-03-14T17:37:12;4.50;99.90
8715;DHT22;4394;51.208;8.904;2023-03-14T17:40:00;4.40;99.90
8715;DHT22;4394;51.208;8.904;2023-03-14T17:42:50;4.40;99.90
8715;DHT22;4394;51.208;8.904;2023-03-14T17:45:39;4.50;99.90
8715;DHT22;4394;51.208;8.904;2023-03-14T17:48:29;4.40;99.90
8715;DHT22;4394;51.208;8.904;2023-03-14T17:51:16;4.40;99.90
8715;DHT22;4394;51.208;8.904;2023-03-14T17:54:05;4.40;99.90
8715;DHT22;4394;51.208;8.904;2023-03-14T17:56:53;4.40;99.90
8715;DHT22;4394;51.208;8.904;2023-03-14T17:59:43;4.40;99.90
8715;DHT22;4394;51.208;8.904;2023-03-14T18:02:32;4.40;99.90
8715;DHT22;4394;51.208;8.904;2023-03-14T18:05:21;4.50;99.90
8715;DHT22;4394;51.208;8.904;2023-03-14T18:08:12;4.50;99.90
8715;DHT22;4394;51.208;8.904;2023-03-14T18:11:00;4.50;99.90
8715;DHT22;4394;51.208;8.904;2023-03-14T18:13:48;4.50;99.90
8715;DHT22;4394;51.208;8.904;2023-03-14T18:16:36;4.50;99.90
8715;DHT22;4394;51.208;8.904;2023-03-14T18:19:25;4.40;99.90
8715;DHT22;4394;51.208;8.904;2023-03-14T18:22:13;4.40;99.90
8715;DHT22;4394;51.208;8.904;2023-03-14T18:25:01;4.40;99.90
8715;DHT22;4394;51.208;8.904;2023-03-14T18:27:51;4.40;99.90
8715;DHT22;4394;51.208;8.904;2023-03-14T18:30:39;4.40;99.90
8715;DHT22;4394;51.208;8.904;2023-03-14T18:33:27;4.30;99.90
8715;DHT22;4394;51.208;8.904;2023-03-14T18:36:17;4.40;99.90
8715;DHT22;4394;51.208;8.904;2023-03-14T18:39:06;4.40;99.90
8715;DHT22;4394;51.208;8.904;2023-03-14T18:41:58;4.40;99.90
8715;DHT22;4394;51.208;8.904;2023-03-14T18:44:46;4.40;99.90
8715;DHT22;4394;51.208;8.904;2023-03-14T18:47:34;4.40;99.90